Time;durP1;ratioP1;P1;durP2;ratioP2;P2;SDS_P1;SDS_P2;PMS_P1;PMS_P2;Temp;Humidity;BMP_temperature;BMP_pressure;BME280_temperature;BME280_humidity;BME280_pressure;Samples;Min_cycle;Max_cycle;Signal;HPM_P1;HPM_P2
2022/08/08 00:01:03;;;;;;;;;;;;;;;27.96;31.19;99559.53;2072549;28;19921;-69
2022/08/08 00:02:07;;;;;;;;;;;;;;;27.96;31.39;99558.69;2077988;28;19920;-70
2022/08/08 00:03:12;;;;;;;;;;;;;;;27.96;31.03;99558.69;2083877;28;20644;-69
2022/08/08 00:04:13;;;;;;;;;;;;;;;27.95;30.95;99566.16;2079539;28;19917;-70
2022/08/08 00:05:19;;;;;;;;;;;;;;;27.94;30.97;99566.38;2082323;28;20549;-69
2022/08/08 00:06:32;;;;;;;;;;;;;;;27.94;31.20;99566.38;2078690;28;19991;-70
2022/08/08 00:07:38;;;;;;;;;;;;;;;27.93;31.00;99564.69;2082210;28;19914;-69
2022/08/08 00:08:50;;;;;;;;;;;;;;;27.92;31.17;99566.59;2078495;28;19923;-70
2022/08/08 00:09:59;;;;;;;;;;;;;;;27.90;31.02;99563.19;2079007;28;20502;-69
2022/08/08 00:11:12;;;;;;;;;;;;;;;27.90;31.13;99567.88;2081981;28;19913;-69
2022/08/08 00:12:16;;;;;;;;;;;;;;;27.89;31.04;99566.19;2078747;28;19923;-70
2022/08/08 00:13:21;;;;;;;;;;;;;;;27.90;31.22;99565.13;2084234;28;20383;-70
2022/08/08 00:14:26;;;;;;;;;;;;;;;27.89;31.04;99563.44;2078813;28;20724;-70
2022/08/08 00:15:30;;;;;;;;;;;;;;;27.89;31.05;99577.28;2084666;28;20390;-70
2022/08/08 00:16:41;;;;;;;;;;;;;;;27.88;31.14;99562.59;2079604;28;20398;-69
2022/08/08 00:20:48;;;;;;;;;;;;;;;27.90;31.02;99562.34;2082464;28;19943;-69
2022/08/08 00:21:52;;;;;;;;;;;;;;;27.88;31.22;99562.59;2084248;28;19956;-69
2022/08/08 00:22:54;;;;;;;;;;;;;;;27.88;31.21;99573.66;2075065;28;19963;-70
2022/08/08 00:24:01;;;;;;;;;;;;;;;27.87;30.97;99560.03;2075547;28;19917;-70
2022/08/08 00:25:07;;;;;;;;;;;;;;;27.88;31.17;99562.59;2076407;28;19919;-70
2022/08/08 00:26:10;;;;;;;;;;;;;;;27.87;30.86;99565.56;2078511;28;19913;-70
2022/08/08 00:27:12;;;;;;;;;;;;;;;27.86;30.74;99564.72;2084357;28;19924;-69
2022/08/08 00:28:14;;;;;;;;;;;;;;;27.87;30.67;99562.78;2083865;28;19994;-69
2022/08/08 00:29:18;;;;;;;;;;;;;;;27.86;30.74;99569.41;2079333;28;20414;-69
2022/08/08 00:30:18;;;;;;;;;;;;;;;27.85;30.50;99568.53;2083380;28;19917;-69
2022/08/08 00:31:21;;;;;;;;;;;;;;;27.86;30.78;99566.66;2083138;28;19982;-69
2022/08/08 00:32:31;;;;;;;;;;;;;;;27.86;30.53;99564.72;2083655;28;19924;-69
2022/08/08 00:33:34;;;;;;;;;;;;;;;27.87;30.52;99565.56;2081626;28;19913;-69
2022/08/08 00:35:12;;;;;;;;;;;;;;;27.87;30.43;99568.34;2071712;28;19917;-69
2022/08/08 00:36:36;;;;;;;;;;;;;;;27.88;30.39;99567.25;2081908;28;20598;-69
2022/08/08 00:37:36;;;;;;;;;;;;;;;27.89;30.43;99563.44;2076998;28;20384;-69
2022/08/08 00:38:53;;;;;;;;;;;;;;;27.89;30.60;99574.50;2078027;28;20299;-69
2022/08/08 00:40:04;;;;;;;;;;;;;;;27.89;30.47;99568.97;2081163;28;19920;-70
2022/08/08 00:41:10;;;;;;;;;;;;;;;27.88;30.61;99561.72;2083262;28;19920;-70
2022/08/08 00:42:13;;;;;;;;;;;;;;;27.90;30.78;99570.66;2082098;28;19970;-70
2022/08/08 00:43:16;;;;;;;;;;;;;;;27.87;30.75;99565.56;2080074;28;19920;-69
2022/08/08 00:44:36;;;;;;;;;;;;;;;27.88;30.57;99567.25;2077590;28;19928;-70
2022/08/08 00:45:39;;;;;;;;;;;;;;;27.88;30.80;99567.25;2077915;28;19928;-70
2022/08/08 00:46:51;;;;;;;;;;;;;;;27.87;30.78;99573.88;2075384;28;19975;-70
2022/08/08 00:48:10;;;;;;;;;;;;;;;27.86;30.59;99570.25;2079939;28;19916;-70
2022/08/08 00:49:29;;;;;;;;;;;;;;;27.86;30.66;99569.41;2076607;28;19917;-70
2022/08/08 00:50:41;;;;;;;;;;;;;;;27.85;30.41;99567.69;2084888;28;20707;-70
2022/08/08 00:51:48;;;;;;;;;;;;;;;27.85;30.55;99567.69;2083804;28;19938;-70
2022/08/08 00:52:57;;;;;;;;;;;;;;;27.85;30.50;99573.25;2080447;28;19917;-70
2022/08/08 00:54:00;;;;;;;;;;;;;;;27.85;30.35;99567.69;2078153;28;19932;-70
2022/08/08 00:55:06;;;;;;;;;;;;;;;27.85;30.55;99567.69;2083445;28;20602;-70
2022/08/08 00:56:30;;;;;;;;;;;;;;;27.84;30.72;99569.63;2079441;28;19928;-70
2022/08/08 00:57:48;;;;;;;;;;;;;;;27.84;30.81;99566.00;2046198;28;19916;-70
2022/08/08 00:59:14;;;;;;;;;;;;;;;27.84;30.68;99566.00;2082107;28;20014;-70
2022/08/08 01:00:16;;;;;;;;;;;;;;;27.84;30.74;99557.69;2081893;28;19917;-70
2022/08/08 01:01:17;;;;;;;;;;;;;;;27.83;30.73;99564.28;2085570;28;19913;-70
2022/08/08 01:02:33;;;;;;;;;;;;;;;27.83;30.77;99564.28;2079204;28;20444;-70
2022/08/08 01:03:52;;;;;;;;;;;;;;;27.83;30.69;99564.28;2080580;28;19928;-69
2022/08/08 01:05:11;;;;;;;;;;;;;;;27.84;30.76;99566.00;2079408;28;19916;-70
2022/08/08 01:06:26;;;;;;;;;;;;;;;27.83;30.93;99565.16;2083912;28;19916;-70
2022/08/08 01:07:45;;;;;;;;;;;;;;;27.83;30.77;99565.16;2079995;28;20025;-69
2022/08/08 01:09:11;;;;;;;;;;;;;;;27.83;30.82;99564.28;2080463;28;19917;-69
2022/08/08 01:10:30;;;;;;;;;;;;;;;27.85;31.01;99567.69;2080086;28;19912;-69
2022/08/08 01:11:46;;;;;;;;;;;;;;;27.85;30.68;99562.16;2082947;28;19913;-69
2022/08/08 01:13:05;;;;;;;;;;;;;;;27.85;30.73;99562.16;2082534;28;19962;-70
2022/08/08 01:14:17;;;;;;;;;;;;;;;27.84;30.67;99560.47;2084658;28;19994;-70
2022/08/08 01:15:36;;;;;;;;;;;;;;;27.84;30.65;99558.53;2082909;28;20018;-69
2022/08/08 01:16:49;;;;;;;;;;;;;;;27.84;30.97;99571.56;2079443;28;20003;-70
2022/08/08 01:17:59;;;;;;;;;;;;;;;27.83;30.92;99564.28;2080045;28;19916;-70
2022/08/08 01:19:11;;;;;;;;;;;;;;;27.84;30.80;99571.56;2082193;28;20027;-69
2022/08/08 01:20:11;;;;;;;;;;;;;;;27.84;30.89;99577.09;2076067;28;19917;-69
2022/08/08 01:21:17;;;;;;;;;;;;;;;27.84;30.83;99571.56;2077568;28;19908;-69
2022/08/08 01:22:39;;;;;;;;;;;;;;;27.83;31.00;99570.72;2077683;28;20008;-69
2022/08/08 01:23:54;;;;;;;;;;;;;;;27.84;31.04;99566.00;2077351;28;20034;-70
2022/08/08 01:25:01;;;;;;;;;;;;;;;27.82;31.21;99562.56;2078323;28;19916;-69
2022/08/08 01:26:13;;;;;;;;;;;;;;;27.83;31.35;99570.72;2082162;28;20383;-70
2022/08/08 01:27:20;;;;;;;;;;;;;;;27.82;31.24;99557.91;2074434;28;19936;-70
2022/08/08 01:28:21;;;;;;;;;;;;;;;27.82;31.16;99563.44;2077094;28;19957;-70
2022/08/08 01:29:40;;;;;;;;;;;;;;;27.82;31.29;99560.69;2079547;28;19916;-70
2022/08/08 01:30:58;;;;;;;;;;;;;;;27.82;31.29;99566.22;2077032;28;19917;-69
2022/08/08 01:32:19;;;;;;;;;;;;;;;27.82;31.39;99568.13;2077597;28;20342;-69
2022/08/08 01:33:22;;;;;;;;;;;;;;;27.79;31.33;99575.78;2078171;28;19924;-70
2022/08/08 01:34:35;;;;;;;;;;;;;;;27.78;31.31;99568.56;2077339;28;20351;-69
2022/08/08 01:35:38;;;;;;;;;;;;;;;27.76;31.28;99576.22;2084822;28;19917;-70
2022/08/08 01:36:44;;;;;;;;;;;;;;;27.76;31.34;99567.09;2076836;28;19957;-69
2022/08/08 01:37:47;;;;;;;;;;;;;;;27.76;31.43;99576.22;2075965;28;19924;-70
2022/08/08 01:38:59;;;;;;;;;;;;;;;27.78;31.63;99574.09;2081921;28;19960;-69
2022/08/08 01:40:09;;;;;;;;;;;;;;;27.77;31.63;99572.38;2083997;28;20357;-69
2022/08/08 01:41:10;;;;;;;;;;;;;;;27.77;31.55;99572.38;2076622;28;19955;-69
2022/08/08 01:42:25;;;;;;;;;;;;;;;27.77;31.68;99574.31;2081363;28;19916;-69
2022/08/08 01:43:44;;;;;;;;;;;;;;;27.78;31.72;99574.09;2081877;28;19919;-69
2022/08/08 01:44:58;;;;;;;;;;;;;;;27.78;31.86;99576.00;2082079;28;19920;-70
2022/08/08 01:46:07;;;;;;;;;;;;;;;27.77;31.82;99577.91;2078667;28;19920;-70
2022/08/08 01:47:26;;;;;;;;;;;;;;;27.77;31.91;99577.91;2075950;28;19943;-70
2022/08/08 01:48:39;;;;;;;;;;;;;;;27.77;31.96;99577.91;2081190;28;19916;-70
2022/08/08 01:49:47;;;;;;;;;;;;;;;27.77;31.97;99577.06;2084089;28;19916;-70
2022/08/08 01:51:26;;;;;;;;;;;;;;;27.76;31.89;99576.22;2079991;28;20484;-69
2022/08/08 01:52:45;;;;;;;;;;;;;;;27.75;32.11;99580.06;2059063;28;19917;-69
2022/08/08 01:53:51;;;;;;;;;;;;;;;27.76;32.06;99575.38;2053631;28;19988;-70
2022/08/08 01:54:51;;;;;;;;;;;;;;;27.76;32.16;99580.94;2054832;28;20229;-70
2022/08/08 01:56:03;;;;;;;;;;;;;;;27.77;32.15;99577.06;2054651;28;19917;-69
2022/08/08 01:57:12;;;;;;;;;;;;;;;27.76;32.03;99576.22;2058733;28;19928;-69
2022/08/08 01:58:31;;;;;;;;;;;;;;;27.77;31.95;99589.00;2069068;28;20424;-69
2022/08/08 01:59:34;;;;;;;;;;;;;;;27.76;32.24;99576.22;2075584;28;19921;-70
2022/08/08 02:00:44;;;;;;;;;;;;;;;27.77;32.25;99577.06;2077725;28;19917;-69
2022/08/08 02:02:01;;;;;;;;;;;;;;;27.77;32.24;99579.84;2081015;28;19915;-70
2022/08/08 02:03:11;;;;;;;;;;;;;;;27.76;32.22;99581.78;2084367;28;19912;-69
2022/08/08 02:04:19;;;;;;;;;;;;;;;27.76;32.03;99579.00;2079786;28;19916;-70
2022/08/08 02:05:37;;;;;;;;;;;;;;;27.76;32.21;99587.31;2081858;28;19927;-69
2022/08/08 02:06:49;;;;;;;;;;;;;;;27.76;32.38;99592.00;2074703;28;20395;-69
2022/08/08 02:08:02;;;;;;;;;;;;;;;27.75;32.16;99591.13;2075986;28;20350;-69
2022/08/08 02:09:02;;;;;;;;;;;;;;;27.75;32.06;99584.75;2080745;28;19917;-69
2022/08/08 02:10:23;;;;;;;;;;;;;;;27.74;32.11;99589.44;2082488;28;19917;-70
2022/08/08 02:11:32;;;;;;;;;;;;;;;27.74;32.06;99588.59;2074289;28;20063;-70
2022/08/08 02:12:52;;;;;;;;;;;;;;;27.73;32.13;99593.28;2074253;28;19916;-70
2022/08/08 02:14:04;;;;;;;;;;;;;;;27.73;31.99;99593.28;2081643;28;19948;-69
2022/08/08 02:15:11;;;;;;;;;;;;;;;27.73;31.95;99592.41;2080246;28;19948;-70
2022/08/08 02:16:30;;;;;;;;;;;;;;;27.73;31.88;99587.75;2080629;28;19922;-69
2022/08/08 02:17:39;;;;;;;;;;;;;;;27.72;31.93;99596.28;2075167;28;19917;-69
2022/08/08 02:18:40;;;;;;;;;;;;;;;27.71;31.87;99592.66;2075339;28;19980;-70
2022/08/08 02:19:52;;;;;;;;;;;;;;;27.70;31.76;99599.25;2081538;28;19991;-70
2022/08/08 02:22:53;;;;;;;;;;;;;;;27.70;32.04;99593.72;2080759;28;19920;-70
2022/08/08 02:24:01;;;;;;;;;;;;;;;27.70;31.76;99596.47;2055773;28;19918;-70
2022/08/08 02:25:19;;;;;;;;;;;;;;;27.69;31.79;99596.72;2058719;28;19956;-69
2022/08/08 02:26:27;;;;;;;;;;;;;;;27.70;31.84;99603.94;2059231;28;20000;-70
2022/08/08 02:27:33;;;;;;;;;;;;;;;27.69;32.02;99603.09;2058912;28;19918;-70
2022/08/08 02:28:52;;;;;;;;;;;;;;;27.69;31.86;99603.09;2055322;28;19917;-70
2022/08/08 02:30:13;;;;;;;;;;;;;;;27.67;32.16;99594.16;2074112;28;19916;-70
2022/08/08 02:31:39;;;;;;;;;;;;;;;27.68;31.95;99601.38;2079347;28;19917;-70
2022/08/08 02:32:43;;;;;;;;;;;;;;;27.68;32.23;99604.16;2078901;28;19916;-70
2022/08/08 02:33:49;;;;;;;;;;;;;;;27.68;32.13;99601.38;2080079;28;19916;-69
2022/08/08 02:35:08;;;;;;;;;;;;;;;27.68;32.19;99598.63;2080082;28;19916;-70
2022/08/08 02:36:22;;;;;;;;;;;;;;;27.68;32.29;99601.38;2082664;28;20770;-70
2022/08/08 02:37:31;;;;;;;;;;;;;;;27.68;32.07;99601.38;2082456;28;19927;-70
2022/08/08 02:38:38;;;;;;;;;;;;;;;27.69;32.08;99603.09;2085354;28;19970;-70
2022/08/08 02:39:41;;;;;;;;;;;;;;;27.69;32.14;99603.09;2082133;28;19924;-69
2022/08/08 02:40:47;;;;;;;;;;;;;;;27.69;32.12;99608.63;2083422;28;20421;-69
2022/08/08 02:42:19;;;;;;;;;;;;;;;27.70;32.28;99603.94;2078403;28;19920;-69
2022/08/08 02:43:39;;;;;;;;;;;;;;;27.71;32.35;99605.66;2079485;28;19917;-69
2022/08/08 02:44:49;;;;;;;;;;;;;;;27.70;32.17;99602.00;2081287;28;19916;-69
2022/08/08 02:45:58;;;;;;;;;;;;;;;27.69;32.23;99602.25;2080781;28;20059;-69
2022/08/08 02:47:05;;;;;;;;;;;;;;;27.69;32.46;99602.25;2082529;28;20004;-69
2022/08/08 02:48:11;;;;;;;;;;;;;;;27.69;32.26;99603.09;2076359;28;20022;-69
2022/08/08 02:49:29;;;;;;;;;;;;;;;27.69;32.38;99603.09;2074652;28;20243;-69
2022/08/08 02:50:57;;;;;;;;;;;;;;;27.69;32.35;99603.09;2080567;28;19940;-70
2022/08/08 02:51:58;;;;;;;;;;;;;;;27.70;32.24;99599.25;2082563;28;19916;-70
2022/08/08 02:53:11;;;;;;;;;;;;;;;27.69;32.47;99597.56;2079375;28;19952;-70
2022/08/08 02:54:28;;;;;;;;;;;;;;;27.68;32.36;99601.38;2085239;28;20683;-70
2022/08/08 02:55:41;;;;;;;;;;;;;;;27.68;32.14;99604.16;2085281;28;19920;-70
2022/08/08 02:56:59;;;;;;;;;;;;;;;27.68;32.56;99600.53;2079735;28;19994;-70
2022/08/08 02:58:02;;;;;;;;;;;;;;;27.67;32.28;99602.47;2078049;28;20399;-69
2022/08/08 02:59:11;;;;;;;;;;;;;;;27.67;32.47;99599.69;2077402;28;19913;-69
2022/08/08 03:00:14;;;;;;;;;;;;;;;27.66;32.45;99597.13;2076843;28;19919;-70
2022/08/08 03:01:33;;;;;;;;;;;;;;;27.65;32.22;99600.97;2076243;28;20518;-70
2022/08/08 03:02:48;;;;;;;;;;;;;;;27.65;32.16;99599.06;2082575;28;19909;-70
2022/08/08 03:03:51;;;;;;;;;;;;;;;27.65;32.29;99596.28;2085843;28;19920;-70
2022/08/08 03:05:07;;;;;;;;;;;;;;;27.65;32.03;99600.97;2081441;28;19926;-70
2022/08/08 03:06:10;;;;;;;;;;;;;;;27.65;32.31;99600.97;2084627;28;20379;-70
2022/08/08 03:07:25;;;;;;;;;;;;;;;27.64;32.21;99600.13;2085408;28;20602;-70
2022/08/08 03:08:25;;;;;;;;;;;;;;;27.64;32.20;99596.53;2080391;28;19916;-70
2022/08/08 03:09:44;;;;;;;;;;;;;;;27.63;32.27;99603.97;2081735;28;20727;-70
2022/08/08 03:11:21;;;;;;;;;;;;;;;27.62;32.11;99601.44;2083765;28;19916;-69
2022/08/08 03:12:39;;;;;;;;;;;;;;;27.61;32.17;99603.34;2083443;28;20510;-70
2022/08/08 03:13:40;;;;;;;;;;;;;;;27.62;32.08;99605.03;2083481;28;20380;-70
2022/08/08 03:14:55;;;;;;;;;;;;;;;27.61;32.08;99606.13;2078725;28;20854;-70
2022/08/08 03:16:07;;;;;;;;;;;;;;;27.60;32.19;99604.41;2078210;28;20371;-70
2022/08/08 03:17:20;;;;;;;;;;;;;;;27.61;32.28;99594.16;2079372;28;20514;-70
2022/08/08 03:18:29;;;;;;;;;;;;;;;27.59;32.19;99602.72;2077166;28;20656;-70
2022/08/08 03:19:38;;;;;;;;;;;;;;;27.60;32.42;99598.03;2084007;28;19916;-70
2022/08/08 03:20:42;;;;;;;;;;;;;;;27.61;32.37;99599.72;2070798;28;20467;-70
2022/08/08 03:21:43;;;;;;;;;;;;;;;27.58;32.19;99601.88;2068615;28;19944;-70
2022/08/08 03:22:45;;;;;;;;;;;;;;;27.60;32.49;99598.88;2082229;28;19916;-69
2022/08/08 03:23:45;;;;;;;;;;;;;;;27.59;32.43;99597.19;2085005;28;19915;-70
2022/08/08 03:24:46;;;;;;;;;;;;;;;27.60;32.26;99598.03;2084257;28;19908;-70
2022/08/08 03:25:47;;;;;;;;;;;;;;;27.59;32.26;99608.25;2079320;28;21154;-69
2022/08/08 03:26:50;;;;;;;;;;;;;;;27.58;32.45;99604.63;2085276;28;20027;-69
2022/08/08 03:27:59;;;;;;;;;;;;;;;27.59;32.19;99602.72;2083887;28;19935;-72
2022/08/08 03:29:03;;;;;;;;;;;;;;;27.61;32.39;99605.25;2084440;28;19924;-72
2022/08/08 03:30:07;;;;;;;;;;;;;;;27.60;32.52;99603.56;2085028;28;20105;-70
2022/08/08 03:33:45;;;;;;;;;;;;;;;27.59;32.33;99599.94;2078859;28;19917;-71
2022/08/08 03:34:46;;;;;;;;;;;;;;;27.59;32.53;99597.19;2081397;28;19909;-72
2022/08/08 03:35:47;;;;;;;;;;;;;;;27.59;32.45;99597.19;2080030;28;19917;-72
2022/08/08 03:36:47;;;;;;;;;;;;;;;27.60;32.40;99609.94;2080272;28;20569;-71
2022/08/08 03:37:48;;;;;;;;;;;;;;;27.59;32.33;99602.72;2079409;28;19943;-71
2022/08/08 03:38:49;;;;;;;;;;;;;;;27.59;32.38;99602.72;2080807;28;19916;-72
2022/08/08 03:39:49;;;;;;;;;;;;;;;27.59;32.45;99608.25;2082380;28;19947;-71
2022/08/08 03:40:53;;;;;;;;;;;;;;;27.58;32.38;99601.00;2076316;28;19923;-72
2022/08/08 03:41:53;;;;;;;;;;;;;;;27.57;32.47;99607.63;2083212;28;19916;-72
2022/08/08 03:42:54;;;;;;;;;;;;;;;27.57;32.44;99602.06;2084889;28;20703;-72
2022/08/08 03:43:55;;;;;;;;;;;;;;;27.57;32.69;99605.69;2077629;28;19916;-70
2022/08/08 03:44:55;;;;;;;;;;;;;;;27.56;32.41;99597.59;2083550;28;19916;-72
2022/08/08 03:45:56;;;;;;;;;;;;;;;27.57;32.54;99604.84;2079247;28;19921;-71
2022/08/08 03:46:56;;;;;;;;;;;;;;;27.55;32.41;99607.81;2082874;28;19923;-71
2022/08/08 03:47:58;;;;;;;;;;;;;;;27.55;32.50;99609.75;2084574;28;19916;-71
2022/08/08 03:49:01;;;;;;;;;;;;;;;27.54;32.35;99605.28;2077894;28;19917;-71
2022/08/08 03:50:02;;;;;;;;;;;;;;;27.54;32.68;99605.28;2078761;28;20455;-71
2022/08/08 03:51:05;;;;;;;;;;;;;;;27.52;32.60;99613.81;2083094;28;19946;-72
2022/08/08 03:52:05;;;;;;;;;;;;;;;27.52;32.65;99612.94;2083002;28;19959;-71
2022/08/08 03:53:06;;;;;;;;;;;;;;;27.52;32.63;99607.41;2080918;28;19950;-71
2022/08/08 03:54:07;;;;;;;;;;;;;;;27.52;32.37;99618.50;2082002;28;19964;-71
2022/08/08 03:55:08;;;;;;;;;;;;;;;27.53;32.60;99614.66;2081494;28;20790;-71
2022/08/08 03:56:09;;;;;;;;;;;;;;;27.52;32.47;99613.81;2083557;28;19966;-72
2022/08/08 03:57:13;;;;;;;;;;;;;;;27.52;32.65;99601.88;2079566;28;19912;-71
2022/08/08 03:58:21;;;;;;;;;;;;;;;27.51;32.79;99611.22;2082318;28;19948;-71
2022/08/08 03:59:27;;;;;;;;;;;;;;;27.50;32.51;99615.09;2078573;28;19917;-71
2022/08/08 04:00:29;;;;;;;;;;;;;;;27.49;32.77;99613.41;2079329;28;20429;-72
2022/08/08 04:01:36;;;;;;;;;;;;;;;27.48;32.64;99606.13;2080353;28;19917;-71
2022/08/08 04:02:37;;;;;;;;;;;;;;;27.50;32.59;99615.09;2082660;28;19929;-71
2022/08/08 04:03:37;;;;;;;;;;;;;;;27.48;32.56;99614.44;2077020;28;19912;-72
2022/08/08 04:04:38;;;;;;;;;;;;;;;27.49;32.88;99607.88;2083638;28;19925;-71
2022/08/08 04:05:38;;;;;;;;;;;;;;;27.48;32.58;99612.53;2079642;28;19925;-72
2022/08/08 04:06:39;;;;;;;;;;;;;;;27.49;32.88;99607.88;2077558;28;19924;-71
2022/08/08 04:07:40;;;;;;;;;;;;;;;27.49;32.88;99602.31;2075884;28;19916;-72
2022/08/08 04:08:40;;;;;;;;;;;;;;;27.50;32.70;99609.53;2077632;28;20458;-72
2022/08/08 04:09:54;;;;;;;;;;;;;;;27.50;32.75;99609.53;2076691;28;19961;-72
2022/08/08 04:10:54;;;;;;;;;;;;;;;27.51;32.89;99614.00;2081451;28;19916;-72
2022/08/08 04:11:55;;;;;;;;;;;;;;;27.51;32.90;99611.22;2079361;28;20636;-71
2022/08/08 04:12:55;;;;;;;;;;;;;;;27.50;32.96;99615.94;2071242;28;19916;-71
2022/08/08 04:13:55;;;;;;;;;;;;;;;27.50;32.96;99615.09;2072765;28;19920;-71
2022/08/08 04:14:56;;;;;;;;;;;;;;;27.51;32.80;99614.00;2078243;28;20340;-71
2022/08/08 04:15:56;;;;;;;;;;;;;;;27.50;33.05;99615.94;2082888;28;19916;-71
2022/08/08 04:16:56;;;;;;;;;;;;;;;27.50;33.12;99621.47;2084913;28;20295;-71
2022/08/08 04:17:57;;;;;;;;;;;;;;;27.50;32.98;99621.47;2081252;28;19938;-72
2022/08/08 04:18:57;;;;;;;;;;;;;;;27.48;32.85;99618.06;2084990;28;19917;-71
2022/08/08 04:19:57;;;;;;;;;;;;;;;27.48;33.07;99612.53;2083030;28;20242;-72
2022/08/08 04:20:58;;;;;;;;;;;;;;;27.48;33.06;99622.75;2081241;28;20321;-72
2022/08/08 04:21:58;;;;;;;;;;;;;;;27.49;32.98;99624.47;2085062;28;20553;-71
2022/08/08 04:22:58;;;;;;;;;;;;;;;27.50;32.75;99626.16;2083473;28;19913;-71
2022/08/08 04:23:59;;;;;;;;;;;;;;;27.50;33.00;99623.38;2081371;28;19991;-71
2022/08/08 04:24:59;;;;;;;;;;;;;;;27.50;32.92;99626.16;2083847;28;19927;-71
2022/08/08 04:25:59;;;;;;;;;;;;;;;27.50;33.05;99626.16;2082566;28;19921;-71
2022/08/08 04:27:00;;;;;;;;;;;;;;;27.49;32.83;99630.00;2079507;28;19917;-72
2022/08/08 04:28:00;;;;;;;;;;;;;;;27.48;33.13;99623.59;2076923;28;19925;-72
2022/08/08 04:29:01;;;;;;;;;;;;;;;27.49;33.18;99628.09;2072430;28;19917;-71
2022/08/08 04:30:03;;;;;;;;;;;;;;;27.48;33.02;99634.66;2072409;28;20276;-71
2022/08/08 04:31:03;;;;;;;;;;;;;;;27.47;33.12;99635.75;2072117;28;20410;-71
2022/08/08 04:32:07;;;;;;;;;;;;;;;27.48;32.95;99640.19;2070978;28;20397;-72
2022/08/08 04:33:07;;;;;;;;;;;;;;;27.47;32.98;99645.97;2075397;28;19921;-71
2022/08/08 04:34:07;;;;;;;;;;;;;;;27.46;33.09;99644.25;2071717;28;20979;-71
2022/08/08 04:35:08;;;;;;;;;;;;;;;27.45;33.12;99639.78;2070979;28;19924;-71
2022/08/08 04:36:08;;;;;;;;;;;;;;;27.45;32.92;99651.72;2062657;28;20683;-71
2022/08/08 04:37:08;;;;;;;;;;;;;;;27.45;33.09;99645.34;2073649;28;19916;-72
2022/08/08 04:38:09;;;;;;;;;;;;;;;27.44;33.01;99649.16;2073633;28;20002;-72
2022/08/08 04:39:09;;;;;;;;;;;;;;;27.44;32.90;99643.63;2071997;28;20075;-72
2022/08/08 04:40:10;;;;;;;;;;;;;;;27.42;33.11;99651.31;2076600;28;19908;-72
2022/08/08 04:41:10;;;;;;;;;;;;;;;27.43;32.78;99653.00;2074645;28;19917;-71
2022/08/08 04:42:10;;;;;;;;;;;;;;;27.44;32.89;99651.91;2075787;28;19916;-71
2022/08/08 04:43:11;;;;;;;;;;;;;;;27.43;33.14;99653.00;2070670;28;19921;-71
2022/08/08 04:44:11;;;;;;;;;;;;;;;27.41;32.91;99646.81;2063137;28;20107;-71
2022/08/08 04:45:12;;;;;;;;;;;;;;;27.39;33.10;99651.72;2074217;28;20400;-72
2022/08/08 04:46:12;;;;;;;;;;;;;;;27.41;33.19;99649.59;2067252;28;19924;-71
2022/08/08 04:47:13;;;;;;;;;;;;;;;27.41;33.27;99649.59;2074516;28;19905;-72
2022/08/08 04:48:13;;;;;;;;;;;;;;;27.40;33.09;99643.22;2064835;28;19917;-71
2022/08/08 04:49:13;;;;;;;;;;;;;;;27.40;33.25;99654.28;2062146;28;19909;-72
2022/08/08 04:50:14;;;;;;;;;;;;;;;27.40;33.32;99653.44;2073265;28;19923;-72
2022/08/08 04:51:14;;;;;;;;;;;;;;;27.41;33.31;99652.34;2074204;28;19956;-71
2022/08/08 04:52:14;;;;;;;;;;;;;;;27.41;33.23;99653.19;2075089;28;19913;-71
2022/08/08 04:53:14;;;;;;;;;;;;;;;27.42;33.32;99654.06;2064887;28;19913;-71
2022/08/08 04:54:15;;;;;;;;;;;;;;;27.43;33.39;99655.75;2065617;28;20000;-71
2022/08/08 04:55:15;;;;;;;;;;;;;;;27.42;33.21;99656.84;2075086;28;20440;-72
2022/08/08 04:56:18;;;;;;;;;;;;;;;27.42;33.39;99659.59;2070452;28;20276;-71
2022/08/08 04:57:18;;;;;;;;;;;;;;;27.43;33.30;99658.53;2074927;28;19923;-72
2022/08/08 04:58:19;;;;;;;;;;;;;;;27.41;33.21;99653.19;2073707;28;19959;-72
2022/08/08 04:59:19;;;;;;;;;;;;;;;27.42;33.22;99662.38;2074807;28;19943;-71
2022/08/08 05:00:23;;;;;;;;;;;;;;;27.42;33.38;99659.59;2071574;28;19990;-71
2022/08/08 05:01:24;;;;;;;;;;;;;;;27.42;33.44;99662.38;2066845;28;19977;-72
2022/08/08 05:02:24;;;;;;;;;;;;;;;27.42;33.37;99662.38;2069765;28;19986;-71
2022/08/08 05:03:24;;;;;;;;;;;;;;;27.43;33.23;99661.31;2072722;28;20647;-72
2022/08/08 05:04:25;;;;;;;;;;;;;;;27.42;33.20;99663.22;2075188;28;20007;-71
2022/08/08 05:05:25;;;;;;;;;;;;;;;27.42;33.33;99662.38;2075213;28;19959;-71
2022/08/08 05:06:25;;;;;;;;;;;;;;;27.42;33.28;99677.06;2074403;28;20155;-71
2022/08/08 05:07:26;;;;;;;;;;;;;;;27.42;33.22;99662.38;2067048;28;19923;-71
2022/08/08 05:08:26;;;;;;;;;;;;;;;27.42;33.25;99670.69;2072375;28;19957;-72
2022/08/08 05:09:27;;;;;;;;;;;;;;;27.41;33.44;99678.09;2069691;28;19924;-71
2022/08/08 05:10:28;;;;;;;;;;;;;;;27.41;33.50;99677.25;2068334;28;19921;-72
2022/08/08 05:11:29;;;;;;;;;;;;;;;27.41;33.59;99672.56;2067057;28;19909;-71
2022/08/08 05:12:29;;;;;;;;;;;;;;;27.41;33.29;99674.50;2075463;28;19991;-71
2022/08/08 05:13:29;;;;;;;;;;;;;;;27.41;33.61;99671.72;2075769;28;19992;-70
2022/08/08 05:14:30;;;;;;;;;;;;;;;27.41;33.32;99678.09;2074423;28;19956;-71
2022/08/08 05:15:30;;;;;;;;;;;;;;;27.40;33.29;99676.41;2075654;28;19990;-71
2022/08/08 05:16:31;;;;;;;;;;;;;;;27.40;33.29;99692.19;2071021;28;19921;-71
2022/08/08 05:17:31;;;;;;;;;;;;;;;27.39;33.55;99682.16;2075595;28;19968;-71
2022/08/08 05:18:32;;;;;;;;;;;;;;;27.39;33.67;99679.38;2075600;28;19948;-71
2022/08/08 05:19:36;;;;;;;;;;;;;;;27.38;33.55;99680.47;2074576;28;19924;-72
2022/08/08 05:20:37;;;;;;;;;;;;;;;27.38;33.53;99683.25;2075142;28;20497;-71
2022/08/08 05:21:40;;;;;;;;;;;;;;;27.36;33.64;99688.97;2063885;28;19909;-71
2022/08/08 05:22:41;;;;;;;;;;;;;;;27.35;33.56;99685.38;2066073;28;20000;-72
2022/08/08 05:23:41;;;;;;;;;;;;;;;27.34;33.43;99686.44;2075692;28;19917;-71
2022/08/08 05:24:41;;;;;;;;;;;;;;;27.36;33.66;99689.84;2074710;28;19917;-71
2022/08/08 05:25:42;;;;;;;;;;;;;;;27.35;33.67;99690.91;2072849;28;19929;-71
2022/08/08 05:26:45;;;;;;;;;;;;;;;27.35;33.36;99688.13;2064766;28;19936;-71
2022/08/08 05:27:45;;;;;;;;;;;;;;;27.33;33.64;99693.03;2069061;28;19962;-71
2022/08/08 05:28:46;;;;;;;;;;;;;;;27.34;33.41;99694.75;2082800;28;19924;-71
2022/08/08 05:29:46;;;;;;;;;;;;;;;27.33;33.40;99693.03;2080127;28;19912;-72
2022/08/08 05:30:46;;;;;;;;;;;;;;;27.34;33.46;99693.88;2078849;28;20474;-72
2022/08/08 05:31:47;;;;;;;;;;;;;;;27.34;33.50;99697.50;2075140;28;19916;-71
2022/08/08 05:32:47;;;;;;;;;;;;;;;27.34;33.50;99694.75;2075108;28;20763;-71
2022/08/08 05:33:48;;;;;;;;;;;;;;;27.35;33.45;99693.66;2083113;28;19959;-71
2022/08/08 05:34:49;;;;;;;;;;;;;;;27.34;33.57;99696.63;2077934;28;20669;-71
2022/08/08 05:35:51;;;;;;;;;;;;;;;27.35;33.28;99695.59;2081982;28;20370;-71
2022/08/08 05:36:52;;;;;;;;;;;;;;;27.33;33.30;99698.56;2079204;28;19917;-71
2022/08/08 05:37:58;;;;;;;;;;;;;;;27.32;33.48;99696.88;2081563;28;19951;-71
2022/08/08 05:38:59;;;;;;;;;;;;;;;27.33;33.45;99706.84;2080857;28;20356;-72
2022/08/08 05:40:03;;;;;;;;;;;;;;;27.33;33.28;99704.09;2079391;28;19916;-71
2022/08/08 05:41:04;;;;;;;;;;;;;;;27.34;33.43;99693.88;2081034;28;20449;-71
2022/08/08 05:42:05;;;;;;;;;;;;;;;27.34;33.15;99704.94;2084567;28;19970;-71
2022/08/08 05:43:09;;;;;;;;;;;;;;;27.34;33.40;99707.69;2084287;28;20638;-71
2022/08/08 05:44:11;;;;;;;;;;;;;;;27.35;33.45;99701.97;2080411;28;20455;-72
2022/08/08 05:45:12;;;;;;;;;;;;;;;27.36;33.34;99708.34;2080995;28;19943;-71
2022/08/08 05:46:12;;;;;;;;;;;;;;;27.35;33.33;99710.28;2080209;28;19916;-71
2022/08/08 05:47:14;;;;;;;;;;;;;;;27.35;33.38;99713.03;2083589;28;19917;-72
2022/08/08 05:48:15;;;;;;;;;;;;;;;27.36;33.46;99709.22;2077280;28;19924;-72
2022/08/08 05:49:15;;;;;;;;;;;;;;;27.35;33.33;99721.34;2074902;28;20946;-72
2022/08/08 05:50:17;;;;;;;;;;;;;;;27.35;33.34;99717.72;2075866;28;19920;-71
2022/08/08 05:51:17;;;;;;;;;;;;;;;27.35;33.31;99723.25;2076985;28;19912;-71
2022/08/08 05:52:18;;;;;;;;;;;;;;;27.34;33.46;99711.34;2078281;28;20024;-71
2022/08/08 05:53:24;;;;;;;;;;;;;;;27.35;33.32;99712.19;2081722;28;20669;-71
2022/08/08 05:54:25;;;;;;;;;;;;;;;27.35;33.45;99717.72;2077260;28;19916;-71